Flugplatz - Wetter - Augsburg

[Quelle: ADDS]
METAR
EDMA 262220Z AUTO 25007KT 9999 FEW056/// OVC072/// 14/12 Q1013 =
TAF
EDMA 261700Z 2618/2703 26007KT 9999 BKN030 TEMPO 2618/2620 28015G25KT SHRA BKN010TCU PROB30 TEMPO 2620/2622 4000 RADZ BKN008 =
SR / SS: 03:47 / 19:03 UTC (Günzburg 2017-07-26)

Flugplatz - Wetter - Laupheim

[Quelle: ADDS]
METAR
ETHL 262220Z 22004KT 9999 SCT070 12/10 Q1014 BLU+ =
TAF
AMD ETHL 261427Z 2614/2623 25012KT 9999 NSW SCT020 BKN040 TEMPO 2614/2623 23010G20KT 6000 RA FEW008 BKN020 BKN035 CANCEL 1500 =

Notice: Undefined index: sun in /homepages/1/d158740339/htdocs/joomla/modules/mod_wx/tmpl/default.php on line 13

Flugplatz - Wetter - Memmingen

[Quelle: ADDS]
METAR
EDJA 261950Z 22006KT 9999 FEW055 BKN072 13/12 Q1014 =
TAF
EDJA 261700Z 2618/2703 23006KT 9999 BKN030 TEMPO 2618/2620 28015G25KT 4000 SHRA BKN012TCU =

Notice: Undefined index: sun in /homepages/1/d158740339/htdocs/joomla/modules/mod_wx/tmpl/default.php on line 13

Flugplatz - Wetter - Neuburg/Donau

[Quelle: ADDS]
METAR
ETSN 262220Z 23006KT 9000 FEW025 SCT045 BKN080 14/13 Q1012 BLU =
TAF
ETSN 262200Z 2623/2708 VRB03KT 8000 NSW SCT030 BKN050 BECMG 2623/2701 VRB02KT 5000 BR SCT050 TEMPO 2700/2705 VRB01KT 2000 BCFG FEW050 BECMG 2705/2707 22007KT 9999 NSW SCT020 BKN050 BY ETGL =

Notice: Undefined index: sun in /homepages/1/d158740339/htdocs/joomla/modules/mod_wx/tmpl/default.php on line 13

Flugplatz - Wetter - Stuttgart

[Quelle: ADDS]
METAR
EDDS 262220Z VRB02KT CAVOK 13/11 Q1013 =
TAF
EDDS 261700Z 2618/2718 25008KT 9999 SCT045 BECMG 2618/2621 23003KT BECMG 2709/2712 24008KT =

Notice: Undefined index: sun in /homepages/1/d158740339/htdocs/joomla/modules/mod_wx/tmpl/default.php on line 13

Flugplatz - Wetter - Niederstetten

[Quelle: ADDS]
METAR
ETHN 262220Z VRB03KT 9999 FEW050 13/12 Q1012 BLU+ =
TAF
AMD ETHN 261457Z 2614/2623 28010KT 6000 RA BKN005 OVC012 TEMPO 2614/2616 28010KT 8000 NSW SCT005 BKN015 BECMG 2615/2617 27008KT 9999 NSW SCT012 BKN020 CANCEL 1500 =

Notice: Undefined index: sun in /homepages/1/d158740339/htdocs/joomla/modules/mod_wx/tmpl/default.php on line 13